Résultats

PROM'SWIM : 5Km sans palmes. Édition 2017.

5 Km
10/09/2017 à 08:00:00 - NICE (06)
233 arrivant(e)s.


 
Les autres classements de cet évènement




Place▲ Temps Dossard Nom Prenom Categ #Categ Sexe #Sexe Club Vit Moy Diplôme Partager
1 01:03:29 766 LOPEZ BAPTISTE 1617M 1 M 1 SN VITROLLES 4.73
2 01:04:12 980 DOLLE MATHIEU 1834M 1 M 2 RCBT 4.67
3 01:04:20 748 FONTAINE OLIVIER 3549M 1 M 3 CERCLE DES NAGEURS D'ANTIBES 4.66
4 01:09:54 1137 TURBAN FRANCOIS 1834M 2 M 4 TEAM FLY ON WATER 4.29
5 01:13:56 904 AGUINET LUDOVIC 50M 1 M 5 4.06
6 01:14:16 958 CORDIER YVES 50M 2 M 6 ONN 4.04
7 01:14:21 949 CHARIAULT SEBASTIEN 3549M 2 M 7 NICE TRIATHLON CLUB 4.03
8 01:14:42 1003 GENESTE FREDERIC 50M 3 M 8 CERCLE DES NAGEURS ANTIBES 4.02
9 01:14:44 936 BOUVARD JEAN-LUC 3549M 3 M 9 CLUB OMNISPORT DE VALBONNE 4.01
10 01:14:48 1018 GUIBERT GREGORY 3549M 4 M 10 AQUASPACE 4.01
11 01:15:00 741 DESPOUY TIPHAINE 1834F 1 F 1 SN FRANCONVILLE 4.00
12 01:15:04 1149 WISLEZ MARC 50M 4 M 11 4.00
13 01:15:16 1062 MALOVA NADEZHDA 3549F 1 F 2 MYSWIM 3.99
14 01:15:57 922 BERTAGNA LOIC 1834M 3 M 12 3.95
15 01:16:04 1100 PESTEL JEAN-PIERRE 50M 5 M 13 LIGNES D'AZUR 3.94
16 01:16:11 929 BILLIAN SERGE 3549M 5 M 14 3.94
17 01:16:13 991 FAILUTTI QUENTIN 1834M 4 M 15 TEAM SPORT CONSULTING-DIETNPERF 3.94
18 01:16:35 1056 LOPEZ JEAN-MICHEL 50M 6 M 16 3.92
19 01:16:44 1004 GEORGES FRANCOIS 3549M 6 M 17 ASOA ANTIBES 3.91
20 01:18:22 1076 MERET LAURENT 50M 7 M 18 TEAM MALMOUSQUE SWIMMERS MARSEILLE 3.83
21 01:18:23 1074 MEISTERMANN THIERRY 50M 8 M 19 3.83
22 01:18:27 1113 RETOUT CHRISTOPHE 3549M 7 M 20 COURIR 3.82
23 01:18:44 908 ALTAVILLA ROBERT 50M 9 M 21 3.81
24 01:18:52 1148 WICK INES 1834F 2 F 3 ANTIBES TRIATHLON 3.80
25 01:19:12 943 CABANERO MARIE-PIERRE 50F 1 F 4 US CAGNES TRI 3.79
26 01:19:25 1138 TURINETTO AUDREY 3549F 2 F 5 SAINT LAURENT TRIATHLON 3.78
27 01:19:53 804 RUYFFELAERE THOMAS 3549M 8 M 22 CLUB DES EPINETTES 3.76
28 01:20:04 1090 OBIDIG CHRISTOPHE 3549M 9 M 23 CLES GARDANNE TRIATHLON 3.75
29 01:20:27 1081 MONNOT PASCALE 3549F 3 F 6 3.73
30 01:20:50 1064 MARFISI JULIEN 1834M 5 M 24 DUC TRIATHLON 3.71
31 01:20:56 1005 GERAUD MARIO 3549M 10 M 25 DAUPHINS DU TOEC 3.71
32 01:21:05 941 N:Anonyme 941 P:Anonyme 941 50M 10 M 26 MENTON MARATHON 3.70
33 01:21:29 920 BERNARD CEDRIIC 3549M 11 M 27 3.68
34 01:21:36 903 AGUILAR GREGOIRE 3549M 12 M 28 3.68
35 01:21:53 973 DEMANGE FLORENT 3549M 13 M 29 COMMINGES TRIATHLON 3.66
36 01:22:36 944 N:Anonyme 944 P:Anonyme 944 50M 11 M 30 JSC COULAINES 3.63
37 01:22:38 1088 NUNEZ FEDERICO 50M 12 M 31 CCINCA 3.63
38 01:22:41 925 BESCON GUENOLE 3549M 14 M 32 3.63
39 01:22:48 976 DEWAELE CHRISTELLE 3549F 4 F 7 COVENTRI 3.62
40 01:23:57 938 BRUERE VALENTIN 1834M 6 M 33 LE PONTET SAUVETAGE 3.57
41 01:25:25 1002 GEENS THIERRY 3549M 15 M 34 VILLE DE NICE 3.51
42 01:25:37 1012 GILLES JULIEN 1834M 7 M 35 3.50
43 01:25:39 1130 TATIANA ARLAMENKOVA 3549F 5 F 8 MYSWIM 3.50
44 01:25:46 932 BOBERIETHER JEROME 3549M 16 M 36 3.50
45 01:25:54 955 COLE ROGER 50M 13 M 37 3.49
46 01:25:55 1055 N:Anonyme 1055 P:Anonyme 1055 3549M 17 M 38 TOBESPORT 3.49
47 01:25:57 1093 ONDER MELISSA 1834F 3 F 9 3.49
48 01:26:02 957 COMBES LAURENT 1834M 8 M 39 LE PONTET SAUVETAGE 3.49
49 01:26:04 1147 WALTON ANDY 50M 14 M 40 3.49
50 01:26:10 820 ZECEVIC STEPHANE 3549M 18 M 41 LNQV/RCF 3.48
51 01:26:15 1118 SEBAN EMIE 1834F 4 F 10 SAINT RAPHAEL TRIATHLON 3.48
52 01:26:17 977 DEWAELE TERENCE 3549M 19 M 42 COVENTRI 3.48
53 01:26:24 1150 ZAMORA PATRICK 50M 15 M 43 3.47
54 01:26:27 946 CARPENTIER CECILE 1834F 5 F 11 LIGNES D'AZUR 3.47
55 01:26:36 749 FROMENT FABRICE 50M 16 M 44 RCC 3.46
56 01:26:40 1127 SOUSSAN PATRICK 50M 17 M 45 WTT 3.46
57 01:26:47 1046 LE-ROUX YANNICK 3549M 20 M 46 BBN 3.46
58 01:26:55 913 BADEL OLIVIER 3549M 21 M 47 BBN 3.45
59 01:26:57 1121 SERRE DENIS 3549M 22 M 48 AQUASPACE 3.45
60 01:27:06 1146 VOLLE RICHARD 50M 18 M 49 USA TRIATHLON 3.44
61 01:27:10 940 BUREAU NICOLAS 1834M 9 M 50 3.44
62 01:27:11 960 COURTEVAL ESTELLE 3549F 6 F 12 3.44
63 01:27:14 961 COURTEVAL GREGORY 3549M 23 M 51 CARROS NATATION 3.44
64 01:27:20 1028 HEMON JULIEN 3549M 24 M 52 3.44
65 01:27:27 1103 PLESSIS HUGUES 3549M 25 M 53 FIGURINES D'HUGO 3.43
66 01:27:32 1047 LE-VERN FABRICE 3549M 26 M 54 NEANT 3.43
67 01:27:36 1033 JEAN-CHRISTOPHE FAUCON 50M 19 M 55 SUN TRANS INTERNATIONAL 3.42
68 01:27:43 998 FRETON AURELIEN 3549M 27 M 56 3.42
69 01:27:45 1078 MEURANT JEAN-LUC 50M 20 M 57 BEAUMONT TRIATHLON 3.42
70 01:27:46 1098 N:Anonyme 1098 P:Anonyme 1098 3549M 28 M 58 3.42
71 01:27:46 945 CAJNA DANIEL 3549M 29 M 59 3.42
72 01:27:51 916 BEL-LEGROUX JONATHAN 1834M 10 M 60 3.41
73 01:28:04 1141 VANDEN-BORRE ARNAUD 3549M 30 M 61 WILD TEAM TRIATHLON 3.41
74 01:28:04 1052 LEGUAY CHRISTOPHE 3549M 31 M 62 3.41
75 01:28:14 1124 SOLA JEAN-PIERRE 50M 21 M 63 3.40
76 01:28:17 856 DAVID FLORENT 1834M 11 M 64 3.40
77 01:28:21 970 DELETANG JEAN-MARIE 50M 22 M 65 STADE LAURENTIN TRIATHLON 3.40
78 01:28:22 1123 SIMEONI JEAN-FRANCOIS 50M 23 M 66 3.39
79 01:28:24 999 GAREL NICOLAS 3549M 32 M 67 3.39
80 01:28:33 923 BERTAGNA MARC 50M 24 M 68 3.39
81 01:28:35 1083 MOREAU OLIVIER 3549M 33 M 69 NAT AZUR 3.39
82 01:28:42 947 CARRILLO ROBERT 3549M 34 M 70 CNA ANTIBES 3.38
83 01:28:58 1105 POUBLAN SERGE 3549M 35 M 71 3.37
84 01:29:05 1053 LEMASSON MARTIAL 3549M 36 M 72 3.37
85 01:29:15 1089 NUSSBAUM SABINE 3549F 7 F 13 3.36
86 01:29:38 1092 OLEG SAPEGIN 3549M 37 M 73 MY SWIM 3.35
87 01:29:47 1066 MARRO MATILDA 1834F 6 F 14 3.34
88 01:30:04 1011 GILLARD SOPHIE 1834F 7 F 15 3.33
89 01:30:04 860 BALDACCI ERIC 3549M 38 M 74 3.33
90 01:30:16 1129 SZLOWIENIEC JOSE 3549M 39 M 75 CAVIGAL NICE TRIATHLON 3.32
91 01:30:18 1024 HALLIFAX ISABELLE 3549F 8 F 16 START 3.32
92 01:30:58 1029 HERON SEBASTIEN 1834M 12 M 76 ANTIBES TRIATHLON 3.30
93 01:31:20 761 JOLIVET LAURENE 1834F 8 F 17 TOEC 3.28
94 01:31:23 907 ALLIBERT BASTIEN 1834M 13 M 77 3.28
95 01:31:32 1126 SOUSSAN OLIVIER 50M 25 M 78 3.28
96 01:31:44 962 CREACH STEPHANE 50M 26 M 79 RCF 3.27
97 01:31:55 1057 LOUIS JEAN-CLAUDE 50M 27 M 80 3.26
98 01:31:55 1017 GUERINEAU FRANCK 50M 28 M 81 AQUASPACE 3.26
99 01:32:02 901 ABASSIT NICOLAS 1834M 14 M 82 3.26
100 01:32:12 1116 SAO-JOAO VICTOR 3549M 40 M 83 PAS DE CLUB 3.25